Time;durP1;ratioP1;P1;durP2;ratioP2;P2;SDS_P1;SDS_P2;PMS_P1;PMS_P2;Temp;Humidity;BMP_temperature;BMP_pressure;BME280_temperature;BME280_humidity;BME280_pressure;Samples;Min_cycle;Max_cycle;Signal;HPM_P1;HPM_P2
2022/09/23 00:01:17;;;;;;;2.50;1.30;;;6.10;99.90;;;5.50;100.00;98028.84;5059444;28;20405;-74
2022/09/23 00:03:45;;;;;;;2.72;1.40;;;6.10;99.90;;;5.52;100.00;98030.53;5061217;28;20045;-74
2022/09/23 00:06:23;;;;;;;8.88;1.40;;;6.20;99.90;;;5.47;100.00;98037.44;5060536;28;20070;-75
2022/09/23 00:08:51;;;;;;;2.95;1.65;;;6.10;99.90;;;5.35;100.00;98032.50;5044526;28;20041;-74
2022/09/23 00:11:24;;;;;;;2.97;1.42;;;6.00;99.90;;;5.27;100.00;98029.16;5061089;28;20066;-73
2022/09/23 00:13:58;;;;;;;4.45;1.50;;;5.90;99.90;;;5.24;100.00;98035.22;5039476;28;20714;-74
2022/09/23 00:16:33;;;;;;;3.60;1.63;;;5.90;99.90;;;5.19;100.00;98029.28;5060740;28;20079;-74
2022/09/23 00:19:04;;;;;;;3.45;1.73;;;5.90;99.90;;;5.13;100.00;98035.38;5061489;28;20370;-74
2022/09/23 00:21:31;;;;;;;2.10;1.10;;;5.90;99.90;;;5.07;100.00;98029.47;5062732;28;20041;-74
2022/09/23 00:23:58;;;;;;;1.58;0.90;;;5.90;99.90;;;5.08;100.00;98032.00;5041972;28;20052;-74
2022/09/23 00:26:26;;;;;;;4.55;1.30;;;5.90;99.90;;;5.17;100.00;98034.44;5046224;28;20048;-74
2022/09/23 00:28:53;;;;;;;4.18;1.35;;;5.80;99.90;;;5.17;100.00;98025.88;5040295;28;20119;-74
2022/09/23 00:31:26;;;;;;;2.35;0.93;;;5.80;99.90;;;5.18;100.00;98025.03;5041058;28;20044;-74
2022/09/23 00:33:59;;;;;;;3.75;1.33;;;5.80;99.90;;;5.12;100.00;98022.53;5022049;28;20041;-74
2022/09/23 00:36:27;;;;;;;2.13;1.20;;;5.80;99.90;;;5.12;100.00;98020.78;5038741;28;20399;-74
2022/09/23 00:38:55;;;;;;;6.57;1.30;;;5.80;99.90;;;5.13;100.00;98022.50;5055944;28;20520;-73
2022/09/23 00:41:22;;;;;;;4.82;1.40;;;5.80;99.90;;;5.18;100.00;98033.59;5042990;28;20056;-74
2022/09/23 00:43:56;;;;;;;2.00;1.00;;;5.80;99.90;;;5.15;100.00;98028.47;5021742;28;20044;-74
2022/09/23 00:46:38;;;;;;;2.05;1.20;;;5.80;99.90;;;5.15;100.00;98027.63;5036132;28;20176;-74
2022/09/23 00:49:10;;;;;;;3.25;1.15;;;5.90;99.90;;;5.28;100.00;98021.44;5054950;28;20045;-74
2022/09/23 00:51:48;;;;;;;3.13;1.00;;;5.90;99.90;;;5.30;100.00;98027.41;5041033;28;20455;-74
2022/09/23 00:54:17;;;;;;;4.53;0.95;;;5.90;99.90;;;5.27;100.00;98021.44;5057170;28;20124;-74
2022/09/23 00:56:44;;;;;;;2.70;1.17;;;5.90;99.90;;;5.29;100.00;98018.00;5054209;28;20056;-76
2022/09/23 00:59:12;;;;;;;2.55;0.88;;;5.90;99.90;;;5.18;100.00;98013.00;5019509;28;20056;-74
2022/09/23 01:01:39;;;;;;;2.72;0.93;;;5.90;99.90;;;5.23;100.00;98015.50;5039611;28;20045;-74
2022/09/23 01:04:07;;;;;;;4.72;1.02;;;5.90;99.90;;;5.17;100.00;98008.72;5023915;28;20135;-74
2022/09/23 01:06:34;;;;;;;1.98;0.90;;;5.90;99.90;;;5.18;100.00;98012.16;5041691;28;20060;-75
2022/09/23 01:09:01;;;;;;;2.08;1.00;;;5.90;99.90;;;5.18;100.00;98010.44;5054588;28;20053;-74
2022/09/23 01:11:53;;;;;;;1.95;1.00;;;5.90;99.90;;;5.11;100.00;98007.94;5063822;28;20136;-74
2022/09/23 01:14:47;;;;;;;2.17;1.20;;;5.80;99.90;;;5.15;100.00;98007.03;5059999;28;20060;-74
2022/09/23 01:17:41;;;;;;;1.65;0.98;;;5.80;99.90;;;5.05;100.00;98008.88;5058799;28;20048;-74
2022/09/23 01:20:38;;;;;;;2.75;1.00;;;5.80;99.90;;;5.08;100.00;98008.84;5025225;28;20053;-74
2022/09/23 01:23:58;;;;;;;4.07;1.15;;;5.80;99.90;;;5.05;100.00;98006.31;5045749;28;20055;-73
2022/09/23 01:26:45;;;;;;;3.13;1.40;;;5.80;99.90;;;5.01;100.00;98008.06;5061033;28;20047;-74
2022/09/23 01:29:42;;;;;;;1.92;0.95;;;5.80;99.90;;;5.02;100.00;98008.94;5043925;28;20048;-74
2022/09/23 01:32:46;;;;;;;4.05;1.08;;;5.80;99.90;;;5.08;100.00;98008.84;5061798;28;20048;-74
2022/09/23 01:35:29;;;;;;;2.65;1.10;;;5.70;99.90;;;5.07;100.00;98008.88;5046869;28;20036;-74
2022/09/23 01:38:01;;;;;;;1.90;0.80;;;5.80;99.90;;;5.08;100.00;98005.41;5047539;28;20068;-74
2022/09/23 01:40:59;;;;;;;2.60;0.95;;;5.80;99.90;;;5.08;100.00;98008.00;5065213;28;20048;-74
2022/09/23 01:43:44;;;;;;;1.75;1.02;;;5.80;99.90;;;5.02;100.00;98002.06;5044994;28;20048;-75
2022/09/23 01:46:44;;;;;;;5.88;1.60;;;5.80;99.90;;;5.07;100.00;98001.16;5041361;28;20122;-74
2022/09/23 01:49:27;;;;;;;2.22;0.98;;;5.80;99.90;;;5.06;100.00;97994.28;5044414;28;20063;-75
2022/09/23 01:52:21;;;;;;;2.90;1.00;;;5.70;99.90;;;4.96;100.00;97997.00;5064935;28;20049;-74
2022/09/23 01:55:11;;;;;;;2.35;1.15;;;5.80;99.90;;;5.05;100.00;97990.88;5041179;28;20056;-74
2022/09/23 01:57:57;;;;;;;3.65;1.38;;;5.80;99.90;;;4.96;100.00;97991.84;5042818;28;20063;-75
2022/09/23 02:00:26;;;;;;;3.03;1.00;;;5.80;99.90;;;5.05;100.00;97982.31;5065256;28;20044;-74
2022/09/23 02:03:05;;;;;;;2.50;1.13;;;5.70;99.90;;;5.11;100.00;97992.50;5061538;28;20147;-75
2022/09/23 02:05:37;;;;;;;1.20;0.73;;;5.70;99.90;;;5.03;100.00;97979.75;5064366;28;20751;-75
2022/09/23 02:09:00;;;;;;;1.80;0.90;;;5.70;99.90;;;5.03;100.00;97975.44;5064627;28;20052;-75
2022/09/23 02:11:28;;;;;;;2.65;0.90;;;5.70;99.90;;;4.97;100.00;97979.84;5037533;28;20143;-75
2022/09/23 02:14:14;;;;;;;2.78;1.10;;;5.70;99.90;;;5.08;100.00;97975.38;5027256;28;20056;-74
2022/09/23 02:16:50;;;;;;;2.22;0.80;;;5.70;99.90;;;4.93;100.00;97970.47;5062148;28;20394;-74
2022/09/23 02:19:26;;;;;;;1.77;0.93;;;5.70;99.90;;;5.01;100.00;97974.63;5027847;28;20048;-74
2022/09/23 02:22:22;;;;;;;2.78;0.90;;;5.60;99.90;;;5.02;100.00;97966.06;5045387;28;20492;-74
2022/09/23 02:24:49;;;;;;;4.72;1.88;;;5.60;99.90;;;5.05;100.00;97964.31;5058222;28;20045;-74
2022/09/23 02:27:37;;;;;;;4.55;1.50;;;5.60;99.90;;;5.03;100.00;97960.03;5043690;28;20049;-75
2022/09/23 02:30:16;;;;;;;3.15;1.60;;;5.60;99.90;;;5.00;100.00;97959.22;5057440;28;20083;-74
2022/09/23 02:33:10;;;;;;;4.38;1.40;;;5.60;99.90;;;4.98;100.00;97955.81;5042526;28;20057;-75
2022/09/23 02:35:58;;;;;;;3.08;1.02;;;5.60;99.90;;;4.99;100.00;97954.94;5041178;28;20045;-74
2022/09/23 02:38:44;;;;;;;4.28;1.35;;;5.60;99.90;;;4.90;100.00;97948.19;5057997;28;20041;-74
2022/09/23 02:41:22;;;;;;;6.28;2.83;;;5.60;99.90;;;4.91;100.00;97955.06;5042616;28;20061;-74
2022/09/23 02:43:52;;;;;;;7.22;3.47;;;5.50;99.90;;;4.91;100.00;97949.91;5058638;28;20076;-74
2022/09/23 02:46:20;;;;;;;6.07;2.72;;;5.50;99.90;;;4.94;100.00;97949.88;5056581;28;20053;-74
2022/09/23 02:48:55;;;;;;;8.23;3.70;;;5.50;99.90;;;4.91;100.00;97944.78;5059079;28;20049;-74
2022/09/23 02:51:27;;;;;;;8.68;4.18;;;5.50;99.90;;;4.76;100.00;97939.84;5043077;28;20075;-74
2022/09/23 02:53:58;;;;;;;8.82;4.18;;;5.50;99.90;;;4.69;100.00;97951.06;5057564;28;20052;-74
2022/09/23 02:56:25;;;;;;;10.43;4.95;;;5.50;99.90;;;4.63;100.00;97944.31;5047024;28;20053;-73
2022/09/23 02:58:53;;;;;;;9.20;4.07;;;5.40;99.90;;;4.58;100.00;97951.19;5076557;28;20045;-74
2022/09/23 03:01:40;;;;;;;9.52;3.53;;;5.40;99.90;;;4.63;100.00;97951.16;5044145;28;20578;-74
2022/09/23 03:05:04;;;;;;;7.93;3.72;;;5.30;99.90;;;4.67;100.00;97952.81;5042209;28;20130;-74
2022/09/23 03:08:06;;;;;;;9.43;3.38;;;5.30;99.90;;;4.67;100.00;97943.38;5046373;28;20140;-74
2022/09/23 03:11:03;;;;;;;11.20;4.03;;;5.30;99.90;;;4.61;100.00;97949.44;5047978;28;20049;-74
2022/09/23 03:14:16;;;;;;;9.35;4.50;;;5.30;99.90;;;4.49;100.00;97949.59;5043683;28;20171;-73
2022/09/23 03:16:59;;;;;;;6.60;3.47;;;5.30;99.90;;;4.67;100.00;97948.50;5047657;28;20578;-73
2022/09/23 03:19:52;;;;;;;7.23;2.73;;;5.30;99.90;;;4.56;100.00;97951.25;5057044;28;20057;-73
2022/09/23 03:22:46;;;;;;;7.32;3.78;;;5.30;99.90;;;4.50;100.00;97948.75;5038017;28;20064;-73
2022/09/23 03:25:18;;;;;;;8.63;3.47;;;5.30;99.90;;;4.54;100.00;97949.56;5020793;28;20048;-73
2022/09/23 03:27:45;;;;;;;8.02;3.33;;;5.20;99.90;;;4.37;100.00;97949.75;5040397;28;20052;-73
2022/09/23 03:30:12;;;;;;;6.28;2.75;;;5.20;99.90;;;4.48;100.00;97947.91;5046201;28;20044;-74
2022/09/23 03:32:45;;;;;;;10.50;4.13;;;5.20;99.90;;;4.32;100.00;97948.97;5043965;28;20045;-73
2022/09/23 03:35:13;;;;;;;;;;;5.10;99.90;;;4.28;100.00;97952.44;5059968;28;20045;-74
2022/09/23 03:38:08;;;;;;;5.75;3.63;;;5.00;99.90;;;4.17;100.00;97952.53;5058811;28;19989;-75
2022/09/23 03:40:41;;;;;;;9.25;3.28;;;5.00;99.90;;;4.01;100.00;97962.13;5028936;28;20056;-75
2022/09/23 03:43:12;;;;;;;7.55;3.42;;;4.90;99.90;;;3.95;100.00;97962.22;5057985;28;20482;-75
2022/09/23 03:45:40;;;;;;;6.72;3.25;;;4.80;99.90;;;3.98;100.00;97957.03;5045027;28;20056;-75
2022/09/23 03:48:10;;;;;;;6.75;3.20;;;4.80;99.90;;;3.88;100.00;97958.00;5043066;28;20056;-74
2022/09/23 03:50:38;;;;;;;6.88;2.92;;;4.70;99.90;;;3.91;100.00;97966.50;5040158;28;20053;-74
2022/09/23 03:53:05;;;;;;;11.45;4.03;;;4.70;99.90;;;3.86;100.00;97970.00;5040761;28;20576;-75
2022/09/23 03:55:33;;;;;;;6.03;3.55;;;4.70;99.90;;;3.83;100.00;97967.44;5041651;28;20075;-74
2022/09/23 03:58:03;;;;;;;8.23;3.00;;;4.70;99.90;;;3.78;100.00;97967.50;5038167;28;20037;-74
2022/09/23 04:00:30;;;;;;;9.60;3.90;;;4.70;99.90;;;3.81;100.00;97969.16;5056995;28;20045;-74
2022/09/23 04:02:57;;;;;;;11.30;3.25;;;4.60;99.90;;;3.83;100.00;97967.44;5041812;28;20048;-75
2022/09/23 04:05:24;;;;;;;10.98;2.80;;;4.70;99.90;;;3.85;100.00;97965.72;5044930;28;20045;-74
2022/09/23 04:07:51;;;;;;;4.28;2.20;;;4.70;99.90;;;3.83;100.00;97960.63;5055470;28;20053;-75
2022/09/23 04:10:18;;;;;;;5.18;2.70;;;4.70;99.90;;;3.85;100.00;97955.44;5041204;28;20048;-75
2022/09/23 04:12:45;;;;;;;7.32;2.42;;;4.70;99.90;;;3.98;100.00;97955.31;5044269;28;20605;-74
2022/09/23 04:15:12;;;;;;;3.60;1.70;;;4.80;99.90;;;4.15;100.00;97960.28;5043969;28;20053;-75
2022/09/23 04:17:39;;;;;;;3.83;2.17;;;4.80;99.90;;;4.17;100.00;97960.25;5040193;28;20762;-75
2022/09/23 04:20:06;;;;;;;7.07;2.42;;;4.90;99.90;;;4.20;100.00;97957.66;5041813;28;20049;-74
2022/09/23 04:22:33;;;;;;;4.75;2.65;;;4.90;99.90;;;4.30;100.00;97951.53;5044528;28;20051;-74
2022/09/23 04:25:01;;;;;;;5.25;2.63;;;5.00;99.90;;;4.26;100.00;97952.44;5044965;28;20041;-74
2022/09/23 04:27:28;;;;;;;5.57;2.22;;;5.00;99.90;;;4.31;100.00;97958.41;5041600;28;20063;-74
2022/09/23 04:29:58;;;;;;;6.57;2.38;;;5.00;99.90;;;4.34;100.00;97960.91;5037971;28;20057;-75
2022/09/23 04:32:25;;;;;;;4.80;1.88;;;5.10;99.90;;;4.29;100.00;97952.41;5054171;28;20049;-74
2022/09/23 04:34:53;;;;;;;5.28;2.13;;;5.10;99.90;;;4.30;100.00;97960.97;5039318;28;20076;-74
2022/09/23 04:37:20;;;;;;;8.43;2.75;;;5.10;99.90;;;4.33;100.00;97955.78;5039270;28;20045;-74
2022/09/23 04:39:47;;;;;;;5.90;2.42;;;5.00;99.90;;;4.31;100.00;97962.66;5041935;28;20045;-74
2022/09/23 04:42:14;;;;;;;3.63;2.08;;;5.10;99.90;;;4.29;100.00;97960.13;5048788;28;20148;-74
2022/09/23 04:44:41;;;;;;;5.68;2.45;;;5.00;99.90;;;4.27;100.00;97959.28;5045521;28;20067;-74
2022/09/23 04:47:08;;;;;;;4.45;2.22;;;5.00;99.90;;;4.25;100.00;97966.16;5048678;28;20056;-74
2022/09/23 04:49:35;;;;;;;5.15;2.17;;;5.00;99.90;;;4.19;100.00;97961.94;5047679;28;20518;-74
2022/09/23 04:52:04;;;;;;;4.85;1.55;;;5.00;99.90;;;4.09;100.00;97964.63;5048179;28;20506;-74
2022/09/23 04:54:31;;;;;;;3.67;2.00;;;4.90;99.90;;;4.13;100.00;97968.88;5046500;28;20073;-74
2022/09/23 04:56:58;;;;;;;4.60;2.20;;;4.90;99.90;;;4.18;100.00;97962.81;5047079;28;20398;-74
2022/09/23 04:59:25;;;;;;;4.45;1.88;;;4.90;99.90;;;4.27;100.00;97968.72;5045357;28;20069;-74
2022/09/23 05:01:53;;;;;;;3.90;2.08;;;5.00;99.90;;;4.29;100.00;97967.84;5063257;28;20053;-74
2022/09/23 05:04:20;;;;;;;3.65;1.65;;;5.00;99.90;;;4.34;100.00;97972.94;5062715;28;20048;-74
2022/09/23 05:06:48;;;;;;;3.58;1.55;;;5.00;99.90;;;4.31;100.00;97967.81;5044763;28;20064;-73
2022/09/23 05:09:16;;;;;;;4.28;1.77;;;5.00;99.90;;;4.28;100.00;97971.25;5047640;28;20516;-74
2022/09/23 05:11:44;;;;;;;3.85;2.30;;;5.00;99.90;;;4.31;100.00;97971.25;5031521;28;20156;-74
2022/09/23 05:14:11;;;;;;;3.50;1.98;;;5.00;99.90;;;4.28;100.00;97967.84;5051125;28;20123;-74
2022/09/23 05:16:39;;;;;;;3.63;1.63;;;5.00;99.90;;;4.38;100.00;97972.03;5046457;28;20066;-74
2022/09/23 05:19:06;;;;;;;2.65;1.55;;;5.00;99.90;;;4.36;100.00;97969.47;5060640;28;20045;-75
2022/09/23 05:21:34;;;;;;;4.20;1.60;;;5.00;99.90;;;4.41;100.00;97969.41;5046245;28;20130;-73
2022/09/23 05:24:01;;;;;;;3.13;1.60;;;5.00;99.90;;;4.42;100.00;97971.09;5047721;28;20052;-74
2022/09/23 05:26:30;;;;;;;3.83;1.70;;;5.00;99.90;;;4.40;100.00;97975.41;5062395;28;20474;-74
2022/09/23 05:28:58;;;;;;;3.85;2.00;;;5.00;99.90;;;4.38;100.00;97970.31;5047670;28;20389;-73
2022/09/23 05:31:28;;;;;;;5.05;2.60;;;5.10;99.90;;;4.45;100.00;97963.38;5048839;28;20131;-73
2022/09/23 05:34:02;;;;;;;4.82;2.28;;;5.10;99.90;;;4.30;100.00;97960.97;5062627;28;20053;-74
2022/09/23 05:36:32;;;;;;;4.80;2.28;;;5.10;99.90;;;4.38;100.00;97959.19;5067559;28;20605;-74
2022/09/23 05:39:06;;;;;;;4.57;1.70;;;5.10;99.90;;;4.38;100.00;97964.31;5067252;28;20843;-74
2022/09/23 05:41:33;;;;;;;5.13;2.13;;;5.20;99.90;;;4.52;100.00;97966.72;5048853;28;20040;-74
2022/09/23 05:44:00;;;;;;;4.95;2.50;;;5.20;99.90;;;4.53;100.00;97960.69;5068168;28;20040;-74
2022/09/23 05:46:29;;;;;;;4.32;1.98;;;5.20;99.90;;;4.71;100.00;97957.88;5050208;28;20188;-74
2022/09/23 05:48:58;;;;;;;4.47;1.80;;;5.30;99.90;;;4.64;100.00;97964.00;5064371;28;20048;-74
2022/09/23 05:51:30;;;;;;;7.22;2.35;;;5.30;99.90;;;4.56;100.00;97960.66;5051677;28;20068;-74
2022/09/23 05:53:59;;;;;;;5.18;2.20;;;5.40;99.90;;;4.58;100.00;97953.78;5065288;28;20163;-74
2022/09/23 05:56:27;;;;;;;5.35;3.03;;;5.40;99.90;;;4.68;100.00;97960.50;5046605;28;20078;-74
2022/09/23 05:58:57;;;;;;;6.30;3.42;;;5.40;99.90;;;4.59;100.00;97955.50;5040253;28;20075;-74
2022/09/23 06:01:30;;;;;;;5.60;3.60;;;5.50;99.90;;;4.72;100.00;97961.31;5060771;28;20725;-75
2022/09/23 06:03:59;;;;;;;7.05;4.47;;;5.50;99.90;;;4.79;100.00;97961.22;5063191;28;20045;-74
2022/09/23 06:06:38;;;;;;;6.47;3.30;;;5.60;99.90;;;4.83;100.00;97964.59;5058337;28;20494;-74
2022/09/23 06:09:10;;;;;;;8.07;3.78;;;5.60;99.90;;;4.94;100.00;97965.28;5062432;28;20048;-74
2022/09/23 06:11:37;;;;;;;6.90;4.45;;;5.70;99.90;;;4.89;100.00;97951.66;5027802;28;20048;-74
2022/09/23 06:14:04;;;;;;;7.22;4.03;;;5.80;99.90;;;4.75;100.00;97951.84;5063169;28;20055;-74
2022/09/23 06:16:33;;;;;;;6.85;3.83;;;5.90;99.90;;;4.82;100.00;97943.16;5059979;28;20045;-74
2022/09/23 06:19:04;;;;;;;9.40;4.13;;;5.80;99.90;;;5.01;100.00;97946.31;5041504;28;20129;-74
2022/09/23 06:21:36;;;;;;;10.88;5.72;;;5.90;99.90;;;4.87;100.00;97934.53;5041270;28;20109;-74
2022/09/23 06:24:05;;;;;;;10.20;5.40;;;6.00;99.90;;;4.87;100.00;97940.53;5030761;28;20478;-74
2022/09/23 06:26:36;;;;;;;10.00;5.10;;;6.00;99.90;;;4.91;100.00;97944.78;5039227;28;20056;-74
2022/09/23 06:29:10;;;;;;;10.25;5.85;;;6.00;99.90;;;4.82;100.00;97935.47;5036174;28;20060;-74
2022/09/23 06:31:39;;;;;;;9.35;5.70;;;6.10;99.90;;;4.90;100.00;97947.34;5040566;28;20059;-74
2022/09/23 06:34:12;;;;;;;11.68;5.75;;;6.00;99.90;;;4.99;100.00;97945.50;5040979;28;20802;-74
2022/09/23 06:36:43;;;;;;;13.88;6.78;;;6.10;99.90;;;4.81;100.00;97946.63;5043440;28;20052;-74
2022/09/23 06:39:15;;;;;;;10.23;5.65;;;6.20;99.90;;;5.05;100.00;97951.44;5044022;28;20421;-74
2022/09/23 06:41:44;;;;;;;12.32;6.40;;;6.30;99.90;;;4.91;100.00;97949.91;5043285;28;20059;-74
2022/09/23 06:44:14;;;;;;;12.82;7.07;;;6.30;99.90;;;4.72;100.00;97953.59;5042703;28;20143;-74
2022/09/23 06:46:41;;;;;;;16.50;8.50;;;6.40;99.90;;;4.90;100.00;97955.91;5057524;28;20055;-74
2022/09/23 06:49:11;;;;;;;16.10;8.23;;;6.40;99.90;;;5.23;100.00;97964.88;5045246;28;20705;-74
2022/09/23 06:51:39;;;;;;;20.45;11.00;;;6.50;99.90;;;5.37;100.00;97964.66;5044767;28;20052;-74
2022/09/23 06:54:06;;;;;;;20.00;11.25;;;6.60;99.90;;;5.43;100.00;97966.31;5046581;28;20052;-74
2022/09/23 06:56:33;;;;;;;25.83;13.60;;;6.70;99.90;;;5.53;100.00;97964.44;5046523;28;20734;-75
2022/09/23 06:59:08;;;;;;;22.27;14.35;;;6.80;99.90;;;5.86;100.00;97968.16;5044363;28;20076;-74
2022/09/23 07:01:35;;;;;;;29.98;17.13;;;6.90;99.90;;;6.03;100.00;97970.47;5060735;28;20048;-74
2022/09/23 07:04:02;;;;;;;21.13;14.18;;;7.10;99.90;;;5.97;100.00;97968.84;5036251;28;20046;-75
2022/09/23 07:06:29;;;;;;;23.13;12.70;;;7.20;99.90;;;6.17;100.00;97962.50;5043116;28;20049;-74
2022/09/23 07:08:56;;;;;;;18.75;10.45;;;7.30;99.90;;;5.94;100.00;97970.59;5045633;28;20046;-74
2022/09/23 07:11:23;;;;;;;14.38;8.00;;;7.40;99.90;;;6.22;100.00;97970.97;5045191;28;20049;-74
2022/09/23 07:13:50;;;;;;;12.43;7.47;;;7.50;99.90;;;6.75;100.00;97963.03;5045847;28;20061;-74
2022/09/23 07:16:17;;;;;;;12.60;7.75;;;7.60;99.90;;;7.03;100.00;97963.31;5046697;28;20053;-74
2022/09/23 07:18:44;;;;;;;11.90;6.80;;;7.80;99.90;;;7.25;100.00;97966.25;5032352;28;20049;-73
2022/09/23 07:21:17;;;;;;;14.07;6.40;;;8.00;99.90;;;7.27;100.00;97964.47;5045214;28;20044;-74
2022/09/23 07:23:47;;;;;;;12.00;6.00;;;8.20;99.90;;;7.38;100.00;97962.50;5027981;28;20076;-74
2022/09/23 07:26:15;;;;;;;10.68;6.63;;;8.30;99.90;;;7.52;100.00;97951.84;5041596;28;20049;-74
2022/09/23 07:28:42;;;;;;;11.57;6.68;;;8.40;99.90;;;7.61;100.00;97951.59;5041404;28;20064;-74
2022/09/23 07:31:13;;;;;;;14.05;8.25;;;8.50;99.90;;;7.46;100.00;97944.25;5044253;28;20378;-73
2022/09/23 07:33:43;;;;;;;14.18;7.38;;;8.60;99.90;;;7.39;100.00;97942.69;5041665;28;20126;-74
2022/09/23 07:36:17;;;;;;;13.18;7.75;;;8.60;99.90;;;7.51;100.00;97937.22;5041352;28;20474;-74
2022/09/23 07:38:46;;;;;;;25.70;7.20;;;8.70;99.90;;;7.72;100.00;97948.75;5029078;28;20431;-74
2022/09/23 07:41:16;;;;;;;14.52;7.57;;;8.70;99.90;;;7.91;100.00;97938.78;5045376;28;20857;-74
2022/09/23 07:43:45;;;;;;;11.43;6.45;;;8.90;99.90;;;8.12;100.00;97943.41;5026441;28;20052;-74
2022/09/23 07:46:16;;;;;;;12.32;6.38;;;9.10;99.90;;;8.45;100.00;97939.97;5040230;28;20049;-74
2022/09/23 07:48:44;;;;;;;8.93;5.60;;;9.30;99.90;;;8.77;100.00;97932.09;5040715;28;20068;-74
2022/09/23 07:51:22;;;;;;;11.57;6.22;;;9.70;99.90;;;9.16;100.00;97938.72;5040230;28;20048;-75
2022/09/23 07:53:51;;;;;;;14.18;8.60;;;10.10;99.90;;;9.20;100.00;97920.44;5034947;28;20057;-74
2022/09/23 07:56:21;;;;;;;15.02;10.43;;;10.30;99.90;;;9.35;100.00;97906.16;5040797;28;20475;-74
2022/09/23 07:59:02;;;;;;;12.57;8.10;;;10.60;99.90;;;10.30;100.00;97902.06;5041113;28;20178;-74
2022/09/23 08:01:38;;;;;;;8.70;5.35;;;11.00;99.90;;;11.59;100.00;97885.84;5046020;28;20071;-74
2022/09/23 08:04:13;;;;;;;8.07;4.97;;;11.60;99.90;;;12.30;100.00;97863.69;5026851;28;20120;-74
2022/09/23 08:06:47;;;;;;;6.68;3.88;;;12.30;99.90;;;13.40;100.00;97849.00;5042739;28;20054;-74
2022/09/23 08:09:16;;;;;;;4.88;3.17;;;13.00;99.90;;;14.12;100.00;97813.16;5043670;28;20078;-74
2022/09/23 08:11:44;;;;;;;7.15;3.75;;;13.70;99.90;;;14.70;100.00;97786.50;5039005;28;20048;-74
2022/09/23 08:14:14;;;;;;;4.88;2.85;;;14.20;99.90;;;15.40;100.00;97771.16;5025577;28;20765;-73
2022/09/23 08:16:43;;;;;;;5.13;2.22;;;14.90;99.90;;;15.97;100.00;97749.44;5026063;28;20060;-73
2022/09/23 08:19:14;;;;;;;4.97;2.83;;;15.60;99.90;;;16.88;100.00;97746.34;5042994;28;20142;-73
2022/09/23 08:21:41;;;;;;;6.22;2.75;;;16.40;99.90;;;16.53;100.00;97736.31;5074993;28;20163;-73
2022/09/23 08:24:15;;;;;;;6.47;2.70;;;16.90;99.90;;;16.36;100.00;97715.63;5041923;28;20049;-73
2022/09/23 08:26:44;;;;;;;4.57;2.22;;;16.90;99.90;;;15.28;100.00;97714.34;5026897;28;20056;-73
2022/09/23 08:29:16;;;;;;;4.53;2.53;;;16.70;99.90;;;14.96;100.00;97711.84;5058727;28;20071;-73
2022/09/23 08:31:43;;;;;;;5.25;2.88;;;16.80;99.90;;;14.57;100.00;97720.19;5015624;28;20044;-73
2022/09/23 08:34:11;;;;;;;6.38;1.95;;;16.70;99.90;;;16.02;100.00;97710.72;5053735;28;20052;-73
2022/09/23 08:36:38;;;;;;;4.82;2.40;;;16.70;99.90;;;15.22;100.00;97709.47;5032996;28;20052;-73
2022/09/23 08:39:05;;;;;;;6.20;2.25;;;16.80;99.90;;;14.26;100.00;97705.38;5039541;28;20055;-73
2022/09/23 08:42:06;;;;;;;3.38;2.03;;;16.80;99.90;;;14.82;100.00;97702.19;5043364;28;20048;-73
2022/09/23 08:44:56;;;;;;;8.05;1.73;;;16.60;99.90;;;14.80;100.00;97701.44;5040002;28;20049;-73
2022/09/23 08:47:26;;;;;;;3.60;1.50;;;16.40;99.90;;;15.38;100.00;97694.53;5025695;28;20056;-73
2022/09/23 08:50:11;;;;;;;4.50;1.73;;;16.30;99.90;;;14.79;100.00;97698.91;5043184;28;20057;-73
2022/09/23 08:52:54;;;;;;;3.78;1.90;;;16.30;99.90;;;14.34;100.00;97706.59;5043421;28;20175;-73
2022/09/23 08:55:49;;;;;;;3.88;1.55;;;16.60;99.90;;;15.50;100.00;97707.81;5042454;28;20055;-73
2022/09/23 08:59:09;;;;;;;3.75;1.67;;;16.70;99.90;;;15.61;100.00;97695.75;5052280;28;20080;-73
2022/09/23 09:01:52;;;;;;;4.57;2.10;;;16.70;99.90;;;14.96;100.00;97696.16;5036939;28;20053;-73
2022/09/23 09:04:45;;;;;;;11.25;7.50;;;17.30;99.90;;;15.45;100.00;97690.63;5021841;28;20059;-73
2022/09/23 09:07:20;;;;;;;10.40;6.70;;;17.50;99.90;;;15.80;100.00;97684.19;5048267;28;20060;-73
2022/09/23 09:10:13;;;;;;;7.88;5.03;;;17.80;99.90;;;15.78;100.00;97688.69;5053446;28;20053;-73
2022/09/23 09:13:09;;;;;;;4.47;1.63;;;18.10;99.90;;;15.83;100.00;97682.25;5038688;28;20117;-73
2022/09/23 09:16:17;;;;;;;2.78;1.33;;;18.20;99.90;;;16.64;100.00;97670.94;5039516;28;20063;-73
2022/09/23 09:19:06;;;;;;;3.97;1.42;;;18.10;99.90;;;15.97;100.00;97673.53;5041838;28;20045;-73
2022/09/23 09:21:39;;;;;;;1.85;1.13;;;18.40;99.90;;;16.44;100.00;97674.03;5039952;28;20586;-73
2022/09/23 09:24:31;;;;;;;3.47;1.55;;;18.60;99.90;;;16.93;100.00;97666.44;5042591;28;20045;-73
2022/09/23 09:27:00;;;;;;;4.68;1.70;;;18.90;99.90;;;16.55;100.00;97675.97;5043723;28;20056;-73
2022/09/23 09:29:37;;;;;;;2.92;1.40;;;18.60;99.90;;;16.27;100.00;97670.72;5044735;28;20049;-73
2022/09/23 09:33:02;;;;;;;4.07;1.33;;;18.50;99.90;;;16.55;100.00;97662.84;5047160;28;20055;-73
2022/09/23 09:35:39;;;;;;;5.60;1.92;;;18.50;99.90;;;16.52;100.00;97654.25;5009504;28;20056;-73
2022/09/23 09:38:06;;;;;;;2.58;1.60;;;18.80;99.90;;;17.32;100.00;97650.72;5049411;28;20048;-74
2022/09/23 09:40:33;;;;;;;5.82;1.83;;;19.00;99.90;;;18.69;100.00;97643.59;5065442;28;20367;-73
2022/09/23 09:43:04;;;;;;;3.65;1.33;;;19.60;99.90;;;17.43;100.00;97645.56;5066885;28;20060;-73
2022/09/23 09:46:07;;;;;;;4.05;1.50;;;19.80;99.90;;;17.86;100.00;97639.09;5032790;28;20099;-73
2022/09/23 09:48:40;;;;;;;3.80;1.48;;;19.50;99.90;;;17.80;100.00;97637.75;5064437;28;20181;-74
2022/09/23 09:51:22;;;;;;;3.88;1.20;;;19.30;99.90;;;18.42;100.00;97633.34;5044317;28;20060;-74
2022/09/23 09:53:51;;;;;;;29.60;16.43;;;19.10;99.90;;;16.84;100.00;97642.63;5065296;28;20070;-74
2022/09/23 09:56:40;;;;;;;16.70;6.15;;;18.70;99.90;;;15.76;100.00;97644.31;5064262;28;20311;-73
2022/09/23 09:59:11;;;;;;;6.47;2.08;;;18.40;99.90;;;15.62;100.00;97642.50;5049048;28;20970;-74
2022/09/23 10:01:38;;;;;;;18.60;9.20;;;;;;;16.17;100.00;97639.97;5047036;28;20049;-73
2022/09/23 10:04:23;;;;;;;6.97;3.75;;;17.90;99.90;;;15.79;100.00;97641.47;5042259;28;20140;-72
2022/09/23 10:07:08;;;;;;;4.20;1.83;;;17.70;99.90;;;15.44;100.00;97646.22;5059142;28;20760;-73
2022/09/23 10:09:37;;;;;;;8.60;3.00;;;17.60;99.90;;;15.77;100.00;97645.97;5057969;28;20056;-74
2022/09/23 10:12:17;;;;;;;5.55;2.13;;;17.30;99.90;;;15.53;100.00;97645.69;5045243;28;20067;-73
2022/09/23 10:14:50;;;;;;;11.90;8.10;;;17.20;99.90;;;15.57;100.00;97639.31;5046707;28;20053;-73
2022/09/23 10:17:23;;;;;;;2.88;1.80;;;17.10;99.90;;;16.18;100.00;97637.25;5050788;28;20078;-73
2022/09/23 10:19:59;;;;;;;8.48;3.67;;;17.30;99.90;;;16.57;100.00;97637.41;5048223;28;20052;-74
2022/09/23 10:22:38;;;;;;;6.05;3.10;;;17.40;99.90;;;15.99;100.00;97637.63;5047285;28;20131;-73
2022/09/23 10:25:18;;;;;;;6.28;2.30;;;17.40;99.90;;;15.58;100.00;97640.19;5063546;28;20049;-73
2022/09/23 10:27:45;;;;;;;4.32;2.17;;;17.50;99.90;;;15.97;100.00;97636.03;5065491;28;20052;-73
2022/09/23 10:30:22;;;;;;;6.07;2.75;;;17.40;99.90;;;15.83;100.00;97634.28;5064191;28;20145;-73
2022/09/23 10:32:53;;;;;;;4.43;1.90;;;17.40;99.90;;;15.48;100.00;97637.28;5048608;28;20113;-73
2022/09/23 10:35:23;;;;;;;3.60;2.33;;;17.30;99.90;;;16.01;100.00;97633.13;5064528;28;20477;-74
2022/09/23 10:37:53;;;;;;;4.60;2.20;;;17.30;99.90;;;16.60;100.00;97624.91;5063549;28;20110;-73
2022/09/23 10:47:28;;;;;;;3.72;2.08;;;17.60;99.90;;;16.71;100.00;97624.22;5060177;28;20052;-73
2022/09/23 10:50:10;;;;;;;4.10;2.05;;;17.80;99.90;;;16.07;100.00;97632.72;5024077;28;20044;-73
2022/09/23 10:53:22;;;;;;;2.97;1.80;;;17.80;99.90;;;16.19;100.00;97632.88;5060332;28;20464;-73
2022/09/23 10:56:36;;;;;;;3.58;1.33;;;18.00;99.90;;;16.78;100.00;97620.22;5061769;28;20098;-73
2022/09/23 10:59:48;;;;;;;3.05;1.60;;;18.00;99.90;;;16.47;100.00;97619.66;5040955;28;20509;-73
2022/09/23 11:02:24;;;;;;;3.33;1.80;;;18.10;99.90;;;16.68;100.00;97619.19;5066524;28;20052;-73